Time;durP1;ratioP1;P1;durP2;ratioP2;P2;SDS_P1;SDS_P2;PMS_P1;PMS_P2;Temp;Humidity;BMP_temperature;BMP_pressure;BME280_temperature;BME280_humidity;BME280_pressure;Samples;Min_cycle;Max_cycle;Signal;HPM_P1;HPM_P2
2022/12/12 00:03:22;;;;;;;1.38;0.95;;;;;;;4.74;100.00;96345.03;10207612;28;19957;-58
2022/12/12 00:08:21;;;;;;;0.95;0.95;;;;;;;4.84;100.00;96342.44;10211289;28;20162;-58
2022/12/12 00:13:20;;;;;;;5.20;0.82;;;;;;;4.91;100.00;96344.16;10210711;28;20045;-58
2022/12/12 00:18:19;;;;;;;0.10;0.10;;;;;;;4.91;100.00;96351.00;10225344;28;20053;-58
2022/12/12 00:23:18;;;;;;;1.67;1.20;;;;;;;4.93;100.00;96367.28;10209852;28;20719;-59
2022/12/12 00:28:17;;;;;;;2.58;1.98;;;;;;;4.89;100.00;96374.13;10208345;28;20054;-58
2022/12/12 00:33:16;;;;;;;4.95;2.35;;;;;;;4.80;100.00;96371.56;10209343;28;20026;-59
2022/12/12 00:38:19;;;;;;;1.05;0.77;;;;;;;4.68;100.00;96384.44;10210297;28;20061;-58
2022/12/12 00:43:18;;;;;;;3.10;2.25;;;;;;;4.69;100.00;96374.16;10208128;28;20154;-58
2022/12/12 00:48:17;;;;;;;1.77;1.67;;;;;;;4.68;100.00;96379.28;10209133;28;20114;-60
2022/12/12 00:53:17;;;;;;;2.45;2.03;;;;;;;4.48;100.00;96369.88;10204887;28;20122;-59
2022/12/12 00:58:15;;;;;;;0.30;0.30;;;;;;;4.43;100.00;96370.72;10209624;28;20062;-58
2022/12/12 01:03:14;;;;;;;0.90;0.90;;;;;;;4.41;100.00;96375.00;10207119;28;20050;-59
2022/12/12 01:08:13;;;;;;;0.55;0.55;;;;;;;4.38;100.00;96363.00;10208584;28;20048;-58
2022/12/12 01:13:12;;;;;;;12.95;7.78;;;;;;;4.36;100.00;96371.56;10206242;28;20113;-58
2022/12/12 01:18:12;;;;;;;7.20;4.90;;;;;;;4.34;100.00;96383.53;10206610;28;20113;-58
2022/12/12 01:23:12;;;;;;;3.15;1.90;;;;;;;4.25;100.00;96367.28;10206813;28;20223;-58
2022/12/12 01:28:11;;;;;;;1.10;1.00;;;;;;;4.15;100.00;96368.13;10204790;28;20117;-58
2022/12/12 01:33:10;;;;;;;0.57;0.55;;;;;;;4.09;100.00;96373.25;10201940;28;20038;-58
2022/12/12 01:38:09;;;;;;;4.90;2.05;;;;;;;3.98;100.00;96372.34;10205334;28;20396;-58
2022/12/12 01:43:12;;;;;;;6.88;2.53;;;;;;;3.89;100.00;96385.16;10204250;28;20039;-58
2022/12/12 01:48:11;;;;;;;0.47;0.45;;;;;;;3.71;100.00;96397.09;10203972;28;20558;-58
2022/12/12 01:53:13;;;;;;;2.55;1.48;;;;;;;3.66;100.00;96388.53;10201757;28;20456;-58
2022/12/12 01:58:14;;;;;;;5.28;2.95;;;;;;;3.61;100.00;96385.94;10202313;28;20996;-58
2022/12/12 02:03:13;;;;;;;0.35;0.35;;;;;;;3.47;100.00;96394.41;10201498;28;21573;-58
2022/12/12 02:08:13;;;;;;;1.00;1.00;;;;;;;3.53;100.00;96397.00;10201828;28;20653;-58
2022/12/12 02:13:18;;;;;;;0.10;0.10;;;;;;;3.60;100.00;96409.00;10201039;28;20465;-58
2022/12/12 02:18:55;;;;;;;0.32;0.32;;;;;;;3.59;100.00;96400.47;10218312;28;20262;-58
2022/12/12 02:24:03;;;;;;;1.38;1.27;;;;;;;3.60;100.00;96403.88;10233888;28;20129;-58
2022/12/12 02:29:24;;;;;;;0.77;0.77;;;;;;;3.63;100.00;96424.41;10204176;28;20117;-58
2022/12/12 02:34:42;;;;;;;0.13;0.13;;;;;;;3.74;100.00;96433.00;10203948;28;20434;-58
2022/12/12 02:39:59;;;;;;;0.30;0.30;;;;;;;3.82;100.00;96423.66;10204218;28;20122;-58
2022/12/12 02:45:08;;;;;;;0.32;0.32;;;;;;;3.86;100.00;96435.63;10211478;28;20123;-59
2022/12/12 02:50:17;;;;;;;0.30;0.30;;;;;;;3.94;100.00;96417.69;10211959;28;20081;-58
2022/12/12 02:55:16;;;;;;;0.73;0.73;;;;;;;4.02;100.00;96428.00;10211347;28;20150;-58
2022/12/12 03:00:16;;;;;;;;;;;;;;;4.07;100.00;96431.41;10210808;28;20151;-58
2022/12/12 03:11:05;;;;;;;0.45;0.45;;;;;;;4.12;100.00;96410.91;10210972;28;20623;-57
2022/12/12 03:16:30;;;;;;;0.90;0.90;;;;;;;4.05;100.00;96405.72;10211047;28;20054;-57
2022/12/12 03:21:53;;;;;;;1.15;1.05;;;;;;;4.01;100.00;96410.84;10211955;28;20066;-57
2022/12/12 03:27:08;;;;;;;1.38;1.27;;;;;;;3.91;100.00;96404.00;10209541;28;20110;-57
2022/12/12 03:32:12;;;;;;;2.13;1.55;;;;;;;3.99;100.00;96431.41;10209987;28;20058;-57
2022/12/12 03:37:19;;;;;;;1.38;1.27;;;;;;;4.03;100.00;96447.66;10209487;28;20180;-57
2022/12/12 03:42:24;;;;;;;0.90;0.90;;;;;;;3.96;100.00;96435.66;10211145;28;20126;-57
2022/12/12 03:47:34;;;;;;;3.30;1.85;;;;;;;4.06;100.00;96435.69;10207326;28;20481;-57
2022/12/12 03:52:58;;;;;;;0.40;0.40;;;;;;;4.16;100.00;96443.44;10210377;28;20170;-57
2022/12/12 03:58:04;;;;;;;1.45;1.00;;;;;;;4.07;100.00;96444.25;10207375;28;20455;-57
2022/12/12 04:03:18;;;;;;;0.95;0.95;;;;;;;4.01;100.00;96445.09;10208036;28;20479;-56
2022/12/12 04:08:18;;;;;;;1.30;1.17;;;;;;;4.00;100.00;96447.66;10208424;28;20113;-57
2022/12/12 04:13:39;;;;;;;2.15;1.90;;;;;;;3.99;100.00;96462.22;10209805;28;20555;-57
2022/12/12 04:18:57;;;;;;;1.27;1.17;;;;;;;3.90;100.00;96469.00;10208542;28;20122;-58
2022/12/12 04:24:01;;;;;;;0.15;0.15;;;;;;;3.81;100.00;96474.94;10209992;28;20127;-57
2022/12/12 04:29:32;;;;;;;0.63;0.63;;;;;;;3.88;100.00;96486.09;10206914;28;20054;-58
2022/12/12 04:34:53;;;;;;;1.83;1.58;;;;;;;4.00;100.00;96493.84;10189554;28;20117;-56
2022/12/12 04:39:57;;;;;;;2.78;1.85;;;;;;;4.09;100.00;96488.75;10207214;28;20129;-56
2022/12/12 04:45:04;;;;;;;5.93;2.20;;;;;;;3.86;100.00;96497.19;10206423;28;20126;-56
2022/12/12 04:50:05;;;;;;;0.52;0.52;;;;;;;3.66;100.00;96498.81;10206944;28;20149;-57
2022/12/12 04:55:05;;;;;;;4.18;1.52;;;;;;;3.67;100.00;96503.09;10209550;28;20058;-57
2022/12/12 05:00:05;;;;;;;0.77;0.77;;;;;;;3.68;100.00;96504.81;10208840;28;20082;-57
2022/12/12 05:05:17;;;;;;;0.60;0.60;;;;;;;3.74;100.00;96499.72;10206652;28;20701;-57
2022/12/12 05:10:18;;;;;;;1.30;1.10;;;;;;;3.65;100.00;96515.91;10208675;28;20615;-57
2022/12/12 05:15:19;;;;;;;1.83;1.50;;;;;;;3.60;100.00;96501.34;10206864;28;20520;-57
2022/12/12 05:20:17;;;;;;;0.73;0.73;;;;;;;3.63;100.00;96491.09;10206946;28;20113;-57
2022/12/12 05:25:16;;;;;;;0.60;0.57;;;;;;;3.61;100.00;96496.25;10207619;28;20093;-57
2022/12/12 05:30:15;;;;;;;1.95;1.27;;;;;;;3.54;100.00;96509.88;10206563;28;20034;-57
2022/12/12 05:35:15;;;;;;;0.52;0.52;;;;;;;3.61;100.00;96513.31;10208191;28;20037;-57
2022/12/12 05:40:14;;;;;;;0.95;0.95;;;;;;;3.78;100.00;96514.28;10206232;28;20074;-57
2022/12/12 05:45:14;;;;;;;1.35;1.30;;;;;;;3.78;100.00;96514.28;10205371;28;20038;-57
2022/12/12 05:50:13;;;;;;;5.38;1.92;;;;;;;3.86;100.00;96516.88;10205489;28;20132;-57
2022/12/12 05:55:12;;;;;;;2.15;2.00;;;;;;;3.91;100.00;96517.75;10206386;28;20177;-57
2022/12/12 06:00:12;;;;;;;2.42;1.38;;;;;;;3.76;100.00;96525.38;10205524;28;20121;-57
2022/12/12 06:05:11;;;;;;;5.70;2.75;;;;;;;3.55;100.00;96510.72;10205390;28;20127;-57
2022/12/12 06:10:10;;;;;;;2.20;2.00;;;;;;;3.61;100.00;96541.53;10205648;28;20083;-57
2022/12/12 06:15:09;;;;;;;0.82;0.77;;;;;;;3.68;100.00;96545.84;10204356;28;20027;-57
2022/12/12 06:20:08;;;;;;;1.35;1.25;;;;;;;3.67;100.00;96551.00;10205999;28;20058;-57
2022/12/12 06:25:08;;;;;;;1.52;1.42;;;;;;;3.60;100.00;96560.34;10206092;28;20675;-57
2022/12/12 06:30:07;;;;;;;2.42;2.03;;;;;;;3.69;100.00;96574.94;10203590;28;20065;-57
2022/12/12 06:35:07;;;;;;;4.03;2.55;;;;;;;3.79;100.00;96575.00;10203856;28;20047;-57
2022/12/12 06:40:07;;;;;;;2.55;2.30;;;;;;;3.86;100.00;96587.03;10204274;28;20441;-57
2022/12/12 06:45:06;;;;;;;4.35;2.80;;;;;;;3.94;100.00;96593.91;10203879;28;20119;-57
2022/12/12 06:50:05;;;;;;;3.33;2.05;;;;;;;4.11;100.00;96584.63;10204640;28;20662;-58
2022/12/12 06:55:05;;;;;;;;;;;;;;;4.19;100.00;96592.34;10205359;28;20054;-56
2022/12/12 07:00:04;;;;;;;4.37;2.90;;;;;;;4.12;100.00;96604.28;10205852;28;19949;-56
2022/12/12 07:05:03;;;;;;;5.38;4.75;;;;;;;4.06;100.00;96600.00;10198801;28;20125;-56
2022/12/12 07:10:03;;;;;;;2.55;2.35;;;;;;;4.04;100.00;96603.41;10203180;28;20062;-58
2022/12/12 07:15:02;;;;;;;1.65;1.02;;;;;;;4.09;100.00;96611.97;10201134;28;20127;-58
2022/12/12 07:20:01;;;;;;;3.70;2.50;;;;;;;4.32;100.00;96619.81;10204364;28;20061;-58
2022/12/12 07:25:00;;;;;;;1.75;1.67;;;;;;;4.33;100.00;96626.66;10202933;28;20042;-58
2022/12/12 07:29:59;;;;;;;2.55;2.35;;;;;;;4.47;100.00;96624.16;10206134;28;20114;-58
2022/12/12 07:34:58;;;;;;;2.00;1.90;;;;;;;4.67;100.00;96635.41;10210459;28;20118;-57
2022/12/12 07:39:57;;;;;;;2.58;2.40;;;;;;;4.74;100.00;96653.41;10207481;28;20038;-58
2022/12/12 07:44:56;;;;;;;3.95;3.17;;;;;;;4.70;100.00;96658.53;10209506;28;20042;-58
2022/12/12 07:49:55;;;;;;;3.22;2.97;;;;;;;4.53;100.00;96667.88;10207236;28;20125;-58
2022/12/12 07:54:54;;;;;;;2.20;1.33;;;;;;;4.57;100.00;96682.47;10209161;28;20037;-58
2022/12/12 07:59:53;;;;;;;3.65;3.17;;;;;;;4.43;100.00;96691.78;10209512;28;20535;-58
2022/12/12 08:04:52;;;;;;;9.18;2.90;;;;;;;4.38;100.00;96707.16;10210220;28;20489;-58
2022/12/12 08:09:51;;;;;;;2.58;1.50;;;;;;;4.47;100.00;96719.22;10210371;28;20071;-57
2022/12/12 08:14:50;;;;;;;3.78;2.13;;;;;;;4.39;100.00;96734.59;10208423;28;20170;-58
2022/12/12 08:19:50;;;;;;;2.22;2.03;;;;;;;4.44;100.00;96727.75;10210008;28;20042;-58
2022/12/12 08:24:49;;;;;;;1.73;1.63;;;;;;;4.54;100.00;96738.09;10209028;28;20527;-57
2022/12/12 08:29:51;;;;;;;6.03;4.25;;;;;;;4.76;100.00;96736.50;10209076;28;20444;-58
2022/12/12 08:34:55;;;;;;;1.70;1.60;;;;;;;4.87;100.00;96737.41;10208577;28;20155;-58
2022/12/12 08:39:54;;;;;;;1.65;1.48;;;;;;;4.98;100.00;96729.81;10207728;28;20113;-57
2022/12/12 08:44:53;;;;;;;0.68;0.68;;;;;;;5.01;100.00;96743.53;10208988;28;20126;-58
2022/12/12 08:49:52;;;;;;;3.20;1.90;;;;;;;5.04;100.00;96746.13;10205710;28;20034;-58
2022/12/12 08:54:51;;;;;;;1.27;1.27;;;;;;;5.18;100.00;96748.75;10205886;28;20031;-57
2022/12/12 08:59:50;;;;;;;1.63;1.02;;;;;;;5.36;100.00;96742.78;10207470;28;20035;-57
2022/12/12 09:04:49;;;;;;;3.33;1.65;;;;;;;5.46;100.00;96748.81;10205591;28;20106;-58
2022/12/12 09:09:48;;;;;;;3.45;3.15;;;;;;;5.53;100.00;96735.13;10208975;28;20034;-58
2022/12/12 09:14:47;;;;;;;2.58;2.15;;;;;;;5.60;100.00;96748.88;10206457;28;20445;-58
2022/12/12 09:19:46;;;;;;;6.65;3.03;;;;;;;5.66;100.00;96746.31;10207653;28;20398;-58
2022/12/12 09:24:45;;;;;;;2.25;2.05;;;;;;;5.62;100.00;96742.88;10206804;28;20035;-58
2022/12/12 09:29:43;;;;;;;1.92;1.25;;;;;;;5.53;100.00;96730.84;10207119;28;20121;-58
2022/12/12 09:34:43;;;;;;;2.42;2.17;;;;;;;5.60;100.00;96717.97;10208158;28;20049;-57
2022/12/12 09:39:42;;;;;;;6.35;1.92;;;;;;;5.64;100.00;96722.28;10200404;28;20118;-59
2022/12/12 09:44:41;;;;;;;;;;;;;;;5.55;100.00;96712.81;10222535;28;20062;-57
2022/12/12 09:49:49;;;;;;;3.55;1.23;;;;;;;5.46;100.00;96713.69;10204234;28;20343;-57
2022/12/12 09:54:48;;;;;;;1.13;0.93;;;;;;;5.25;100.00;96724.78;10205186;28;20085;-56
2022/12/12 09:59:55;;;;;;;1.05;0.95;;;;;;;4.97;100.00;96728.94;10204393;28;20456;-57
2022/12/12 10:05:00;;;;;;;1.25;1.25;;;;;;;5.10;100.00;96717.84;10204791;28;20516;-57
2022/12/12 10:10:26;;;;;;;2.35;1.77;;;;;;;5.18;100.00;96725.59;10202881;28;20261;-58
2022/12/12 10:15:34;;;;;;;1.63;1.52;;;;;;;5.36;100.00;96724.78;10201622;28;20129;-59
2022/12/12 10:20:44;;;;;;;1.42;1.33;;;;;;;4.97;100.00;96733.22;10205633;28;20062;-57
2022/12/12 10:26:07;;;;;;;3.70;2.33;;;;;;;5.02;100.00;96728.97;10203233;28;20134;-57
2022/12/12 10:31:28;;;;;;;5.90;1.65;;;;;;;5.29;100.00;96730.78;10205101;28;20492;-57
2022/12/12 10:36:30;;;;;;;3.92;1.67;;;;;;;5.36;100.00;96727.38;10202456;28;20073;-57
2022/12/12 10:42:13;;;;;;;3.08;2.60;;;;;;;5.37;100.00;96723.94;10204411;28;20110;-57
2022/12/12 10:47:12;;;;;;;2.53;2.38;;;;;;;5.41;100.00;96720.50;10198048;28;20117;-57
2022/12/12 10:52:20;;;;;;;3.28;2.15;;;;;;;5.23;100.00;96730.78;10203823;28;20126;-57
2022/12/12 10:57:25;;;;;;;0.85;0.85;;;;;;;5.39;100.00;96717.09;10204633;28;20185;-57
2022/12/12 11:02:36;;;;;;;1.20;1.20;;;;;;;5.43;100.00;96697.38;10205387;28;20129;-57
2022/12/12 11:07:41;;;;;;;3.20;2.00;;;;;;;5.64;100.00;96681.09;10212192;28;20122;-57
2022/12/12 11:12:40;;;;;;;8.90;4.15;;;;;;;5.79;100.00;96695.69;10210022;28;20113;-57
2022/12/12 11:17:39;;;;;;;4.43;3.53;;;;;;;5.50;100.00;96699.09;10205090;28;20030;-56
2022/12/12 11:22:38;;;;;;;3.30;3.00;;;;;;;5.32;100.00;96697.34;10208029;28;20070;-56
2022/12/12 11:27:38;;;;;;;;;;;;;;;4.92;100.00;96695.47;10208093;28;20130;-56
2022/12/12 11:32:41;;;;;;;2.20;2.10;;;;;;;4.85;100.00;96703.13;10208477;28;20004;-56
2022/12/12 11:37:50;;;;;;;2.75;2.28;;;;;;;4.75;100.00;96696.25;10206633;28;20118;-56
2022/12/12 11:42:49;;;;;;;1.80;1.70;;;;;;;4.76;100.00;96687.66;10207622;28;20466;-56
2022/12/12 11:47:48;;;;;;;;;;;;;;;4.75;100.00;96707.38;10207754;28;20129;-56
2022/12/12 11:52:48;;;;;;;3.60;3.22;;;;;;;4.61;100.00;96704.72;10209386;28;19932;-56
2022/12/12 11:58:14;;;;;;;3.88;2.00;;;;;;;4.72;100.00;96703.09;10207093;28;20074;-56
2022/12/12 12:03:37;;;;;;;5.25;1.70;;;;;;;4.67;100.00;96699.63;10209127;28;20126;-57
2022/12/12 12:09:13;;;;;;;1.70;1.13;;;;;;;4.63;100.00;96699.63;10221682;28;20924;-56
2022/12/12 12:14:37;;;;;;;1.38;1.27;;;;;;;4.47;100.00;96703.81;10208430;28;20190;-56
2022/12/12 12:19:50;;;;;;;1.42;1.33;;;;;;;4.46;100.00;96709.81;10207574;28;20138;-57
2022/12/12 12:25:07;;;;;;;1.65;1.38;;;;;;;4.58;100.00;96704.72;10208835;28;20126;-57
2022/12/12 12:30:12;;;;;;;3.35;3.05;;;;;;;4.29;100.00;96713.13;10206880;28;20501;-56
2022/12/12 12:35:29;;;;;;;0.95;0.95;;;;;;;4.34;100.00;96714.84;10207447;28;20106;-56
2022/12/12 12:40:52;;;;;;;0.55;0.55;;;;;;;4.25;100.00;96715.66;10206759;28;20126;-57
2022/12/12 12:46:11;;;;;;;6.13;1.60;;;;;;;4.22;100.00;96713.03;10207770;28;20117;-57
2022/12/12 12:51:34;;;;;;;3.03;2.83;;;;;;;4.28;100.00;96716.53;10206721;28;20074;-57
2022/12/12 12:56:44;;;;;;;2.05;1.63;;;;;;;4.10;100.00;96734.34;10202751;28;20132;-57
2022/12/12 13:01:47;;;;;;;4.93;1.90;;;;;;;3.92;100.00;96745.34;10206280;28;20085;-57
2022/12/12 13:06:54;;;;;;;3.25;2.25;;;;;;;3.76;100.00;96730.66;10203588;28;20122;-56
2022/12/12 13:12:06;;;;;;;1.52;1.42;;;;;;;3.82;100.00;96711.06;10205492;28;20117;-57
2022/12/12 13:17:11;;;;;;;1.70;1.23;;;;;;;3.94;100.00;96735.97;10205914;28;20065;-57
2022/12/12 13:22:15;;;;;;;2.40;2.22;;;;;;;3.91;100.00;96745.31;10206340;28;20141;-57
2022/12/12 13:27:23;;;;;;;1.23;1.15;;;;;;;3.73;100.00;96749.44;10201497;28;20501;-57
2022/12/12 13:32:42;;;;;;;1.30;1.27;;;;;;;3.71;100.00;96763.13;10206189;28;20074;-57
2022/12/12 13:37:51;;;;;;;2.15;2.00;;;;;;;3.75;100.00;96767.41;10205594;28;20122;-57
2022/12/12 13:43:00;;;;;;;2.10;1.88;;;;;;;3.62;100.00;96751.91;10206537;28;20058;-57
2022/12/12 13:48:02;;;;;;;1.00;1.00;;;;;;;3.62;100.00;96754.47;10206788;28;20079;-57
2022/12/12 13:53:07;;;;;;;2.50;2.33;;;;;;;3.48;100.00;96770.56;10206174;28;20066;-57
2022/12/12 13:58:18;;;;;;;3.38;2.38;;;;;;;3.34;100.00;96789.22;10205409;28;20467;-57
2022/12/12 14:03:29;;;;;;;2.67;2.47;;;;;;;3.34;100.00;96789.22;10205367;28;20121;-57
2022/12/12 14:08:33;;;;;;;4.55;2.42;;;;;;;3.22;100.00;96784.81;10203170;28;20126;-58
2022/12/12 14:13:43;;;;;;;0.90;0.90;;;;;;;3.20;100.00;96790.75;10205237;28;20055;-58
2022/12/12 14:18:48;;;;;;;4.38;1.88;;;;;;;3.25;100.00;96804.47;10206560;28;20126;-57
2022/12/12 14:23:50;;;;;;;4.90;1.83;;;;;;;3.11;100.00;96801.75;10205497;28;20063;-57
2022/12/12 14:29:16;;;;;;;2.88;2.65;;;;;;;3.14;100.00;96821.44;10206759;28;20078;-57
2022/12/12 14:34:24;;;;;;;4.10;3.58;;;;;;;3.12;100.00;96824.00;10202940;28;20114;-57
2022/12/12 14:39:41;;;;;;;1.45;1.35;;;;;;;3.14;100.00;96831.69;10211045;28;20078;-57
2022/12/12 14:44:43;;;;;;;8.35;4.57;;;;;;;3.12;100.00;96821.44;10211152;28;20604;-57
2022/12/12 14:49:42;;;;;;;4.07;2.95;;;;;;;3.10;100.00;96814.56;10213440;28;20078;-57
2022/12/12 14:54:42;;;;;;;1.70;1.60;;;;;;;2.95;100.00;96836.56;10210075;28;20066;-57
2022/12/12 14:59:42;;;;;;;0.85;0.85;;;;;;;2.93;100.00;96828.00;10212623;28;20492;-57
2022/12/12 15:04:46;;;;;;;3.75;2.00;;;;;;;2.95;100.00;96831.44;10212201;28;20130;-57
2022/12/12 15:09:47;;;;;;;2.42;2.15;;;;;;;3.04;100.00;96829.84;10208156;28;20532;-57
2022/12/12 15:14:46;;;;;;;3.05;2.75;;;;;;;3.00;100.00;96818.69;10208370;28;20118;-57
2022/12/12 15:19:49;;;;;;;2.22;1.42;;;;;;;2.97;100.00;96809.25;10208065;28;20038;-57
2022/12/12 15:24:49;;;;;;;4.32;3.28;;;;;;;2.95;100.00;96823.75;10205508;28;20122;-57
2022/12/12 15:29:48;;;;;;;2.05;1.85;;;;;;;2.80;100.00;96834.63;10208965;28;20761;-57
2022/12/12 15:34:58;;;;;;;;;;;;;;;2.53;100.00;96842.75;10209773;28;20069;-57
2022/12/12 15:40:00;;;;;;;2.67;1.88;;;;;;;2.35;100.00;96832.25;10209954;28;20026;-56
2022/12/12 15:44:59;;;;;;;1.05;1.05;;;;;;;2.32;100.00;96839.84;10209095;28;20119;-58
2022/12/12 15:50:09;;;;;;;1.73;1.60;;;;;;;2.30;100.00;96819.38;10209497;28;20125;-57
2022/12/12 15:55:20;;;;;;;1.90;1.35;;;;;;;2.40;100.00;96825.50;10209203;28;20054;-57
2022/12/12 16:00:30;;;;;;;4.65;2.92;;;;;;;2.31;100.00;96828.75;10211323;28;20077;-57
2022/12/12 16:05:33;;;;;;;4.80;2.97;;;;;;;2.16;100.00;96836.19;10197827;28;20122;-57
2022/12/12 16:10:52;;;;;;;4.28;2.78;;;;;;;2.08;100.00;96853.97;10208925;28;20121;-57
2022/12/12 16:15:51;;;;;;;3.00;2.33;;;;;;;2.10;100.00;96871.91;10206880;28;20133;-57
2022/12/12 16:20:55;;;;;;;;;;;;;;;2.10;100.00;96877.03;10209310;28;20111;-57
2022/12/12 16:25:54;;;;;;;3.53;3.22;;;;;;;1.77;100.00;96895.19;10207040;28;20021;-57
2022/12/12 16:30:53;;;;;;;6.05;1.55;;;;;;;1.43;100.00;96894.47;10209995;28;20050;-57
2022/12/12 16:35:53;;;;;;;1.50;1.48;;;;;;;1.17;100.00;96916.94;10209023;28;20041;-57
2022/12/12 16:40:54;;;;;;;2.15;1.67;;;;;;;0.99;100.00;96919.91;10207048;28;20134;-57
2022/12/12 16:45:55;;;;;;;0.70;0.70;;;;;;;0.90;100.00;96931.66;10204533;28;20181;-57
2022/12/12 16:51:01;;;;;;;2.95;1.92;;;;;;;0.77;100.00;96949.22;10189205;28;20061;-57
2022/12/12 16:56:00;;;;;;;4.28;1.55;;;;;;;0.72;100.00;96946.56;10167328;28;20599;-57
2022/12/12 17:01:00;;;;;;;1.65;1.15;;;;;;;0.61;100.00;96956.47;10166325;28;20129;-57
2022/12/12 17:05:59;;;;;;;0.65;0.43;;;;;;;0.36;100.00;96960.13;10164236;28;20122;-57
2022/12/12 17:10:58;;;;;;;2.00;1.90;;;;;;;0.35;100.00;96970.28;10167526;28;20069;-57
2022/12/12 17:15:57;;;;;;;3.95;3.63;;;;;;;0.34;100.00;96984.75;10168422;28;20055;-56
2022/12/12 17:20:56;;;;;;;3.22;2.05;;;;;;;0.49;100.00;97002.13;10166957;28;20525;-57
2022/12/12 17:25:55;;;;;;;4.95;4.32;;;;;;;0.52;100.00;96988.56;10168233;28;20469;-57
2022/12/12 17:30:54;;;;;;;11.75;4.07;;;;;;;0.69;100.00;96992.44;10164327;28;20114;-57
2022/12/12 17:36:11;;;;;;;2.58;2.33;;;;;;;0.69;100.00;96979.69;10166784;28;20042;-57
2022/12/12 17:41:11;;;;;;;1.88;1.77;;;;;;;0.77;100.00;96988.38;10166945;28;20596;-56
2022/12/12 17:46:16;;;;;;;3.75;2.67;;;;;;;0.80;100.00;96983.38;10167555;28;20492;-57
2022/12/12 17:51:18;;;;;;;2.20;2.10;;;;;;;0.86;100.00;96987.75;10164411;28;20174;-56
2022/12/12 17:56:20;;;;;;;2.13;1.98;;;;;;;0.88;100.00;96998.88;10175742;28;20126;-57
2022/12/12 18:01:25;;;;;;;1.65;1.55;;;;;;;0.85;100.00;96991.09;10204361;28;20065;-57
2022/12/12 18:06:26;;;;;;;0.82;0.82;;;;;;;0.84;100.00;96997.06;10204263;28;20635;-57
2022/12/12 18:11:30;;;;;;;1.27;1.27;;;;;;;0.85;100.00;97006.44;10201584;28;21124;-56
2022/12/12 18:16:30;;;;;;;2.47;2.33;;;;;;;0.82;100.00;97007.22;10203296;28;20106;-57
2022/12/12 18:21:31;;;;;;;1.38;1.38;;;;;;;0.81;100.00;97000.41;10205375;28;20085;-57
2022/12/12 18:26:30;;;;;;;5.55;2.83;;;;;;;0.79;100.00;97013.97;10203446;28;20142;-59
2022/12/12 18:31:30;;;;;;;3.28;3.08;;;;;;;0.66;100.00;96998.34;10203323;28;20058;-59
2022/12/12 18:36:30;;;;;;;4.70;3.70;;;;;;;0.66;100.00;96995.78;10203856;28;20086;-57
2022/12/12 18:41:31;;;;;;;2.63;2.33;;;;;;;0.66;100.00;96997.44;10205586;28;20050;-56
2022/12/12 18:46:31;;;;;;;2.70;2.05;;;;;;;0.62;100.00;97016.09;10203143;28;20122;-56
2022/12/12 18:51:30;;;;;;;;;;;;;;;0.41;100.00;97022.34;10206407;28;20062;-57
2022/12/12 18:56:30;;;;;;;4.90;3.50;;;;;;;0.12;100.00;97030.88;10204650;28;19914;-57
2022/12/12 19:01:33;;;;;;;5.28;4.78;;;;;;;-0.03;100.00;97034.75;10204359;28;20067;-57
2022/12/12 19:06:34;;;;;;;1.83;1.73;;;;;;;-0.40;100.00;97051.50;10201668;28;20074;-56
2022/12/12 19:11:34;;;;;;;1.98;1.85;;;;;;;-0.54;100.00;97055.31;10204169;28;20054;-56
2022/12/12 19:16:33;;;;;;;2.47;1.30;;;;;;;-0.69;100.00;97060.81;10204694;28;20066;-58
2022/12/12 19:21:33;;;;;;;0.85;0.85;;;;;;;-0.84;100.00;97076.47;10201686;28;20066;-59
2022/12/12 19:26:32;;;;;;;0.50;0.50;;;;;;;-1.03;100.00;97076.66;10206422;28;20134;-59
2022/12/12 19:31:34;;;;;;;1.67;1.55;;;;;;;-0.93;100.00;97081.25;10208877;28;20113;-58
2022/12/12 19:36:34;;;;;;;2.17;2.05;;;;;;;-0.89;100.00;97077.13;10222246;28;20125;-59
2022/12/12 19:41:34;;;;;;;1.63;1.45;;;;;;;-0.78;100.00;97070.69;10208834;28;20058;-59
2022/12/12 19:46:33;;;;;;;3.20;2.88;;;;;;;-0.63;100.00;97070.31;10208956;28;20126;-59
2022/12/12 19:51:34;;;;;;;3.85;1.80;;;;;;;-0.61;100.00;97058.47;10208838;28;20121;-59
2022/12/12 19:56:36;;;;;;;3.20;2.92;;;;;;;-0.50;100.00;97056.28;10210062;28;20046;-59
2022/12/12 20:01:35;;;;;;;2.35;2.20;;;;;;;-0.46;100.00;97058.97;10209627;28;20101;-59
2022/12/12 20:06:40;;;;;;;0.95;0.95;;;;;;;-0.31;100.00;97060.25;10210836;28;20138;-59
2022/12/12 20:11:42;;;;;;;2.58;2.38;;;;;;;-0.29;100.00;97059.47;10207178;28;20057;-58
2022/12/12 20:16:42;;;;;;;1.27;1.17;;;;;;;-0.43;100.00;97061.59;10209345;28;20123;-59
2022/12/12 20:21:43;;;;;;;1.02;1.02;;;;;;;-0.60;100.00;97056.00;10209324;28;20146;-58
2022/12/12 20:26:42;;;;;;;0.20;0.20;;;;;;;-0.66;100.00;97057.47;10206871;28;20474;-58
2022/12/12 20:31:44;;;;;;;;;;;;;;;-0.83;100.00;97073.09;10208345;28;20114;-60
2022/12/12 20:36:43;;;;;;;0.70;0.68;;;;;;;-0.96;100.00;97080.28;10207814;28;20017;-59
2022/12/12 20:41:43;;;;;;;1.05;1.05;;;;;;;-1.10;100.00;97097.66;10208763;28;20062;-60
2022/12/12 20:46:44;;;;;;;0.90;0.90;;;;;;;-1.13;100.00;97106.03;10205111;28;20548;-61
2022/12/12 20:51:43;;;;;;;0.40;0.40;;;;;;;-1.28;100.00;97123.31;10208912;28;20476;-59
2022/12/12 20:56:43;;;;;;;0.28;0.28;;;;;;;-1.19;100.00;97146.56;10208262;28;20050;-60
2022/12/12 21:01:42;;;;;;;0.80;0.80;;;;;;;-1.17;100.00;97156.81;10207731;28;20147;-59
2022/12/12 21:06:50;;;;;;;2.20;2.05;;;;;;;-1.03;100.00;97158.16;10208611;28;20035;-59
2022/12/12 21:11:49;;;;;;;5.20;2.30;;;;;;;-0.91;100.00;97163.66;10206608;28;20050;-58
2022/12/12 21:16:48;;;;;;;1.00;1.00;;;;;;;-0.77;100.00;97168.34;10208097;28;20134;-59
2022/12/12 21:21:47;;;;;;;0.30;0.30;;;;;;;-0.84;100.00;97183.44;10207375;28;20791;-59
2022/12/12 21:26:46;;;;;;;1.67;1.58;;;;;;;-0.78;100.00;97169.19;10205580;28;20038;-59
2022/12/12 21:31:46;;;;;;;1.20;1.10;;;;;;;-0.81;100.00;97181.00;10207007;28;20442;-59
2022/12/12 21:36:45;;;;;;;0.80;0.80;;;;;;;-0.72;100.00;97202.50;10203631;28;20057;-58
2022/12/12 21:41:44;;;;;;;;;;;;;;;-0.54;100.00;97198.03;10206475;28;20088;-59
2022/12/12 21:46:43;;;;;;;0.50;0.50;;;;;;;-0.42;100.00;97197.56;10202833;28;20091;-59
2022/12/12 21:51:42;;;;;;;1.23;0.90;;;;;;;-0.37;100.00;97211.31;10206078;28;20039;-59
2022/12/12 21:56:42;;;;;;;2.20;2.00;;;;;;;-0.40;100.00;97191.69;10205012;28;20118;-59
2022/12/12 22:01:41;;;;;;;0.70;0.70;;;;;;;-0.37;100.00;97202.00;10205272;28;20545;-59
2022/12/12 22:06:43;;;;;;;4.32;1.88;;;;;;;-0.26;100.00;97191.28;10204495;28;20118;-59
2022/12/12 22:11:42;;;;;;;1.50;1.40;;;;;;;-0.24;100.00;97210.03;10205069;28;20058;-59
2022/12/12 22:16:41;;;;;;;0.40;0.40;;;;;;;-0.24;100.00;97193.06;10205169;28;20129;-59
2022/12/12 22:21:43;;;;;;;1.20;1.10;;;;;;;-0.11;100.00;97201.97;10219886;28;20061;-60
2022/12/12 22:26:44;;;;;;;0.82;0.82;;;;;;;-0.11;100.00;97196.00;10204294;28;20121;-59
2022/12/12 22:31:44;;;;;;;0.90;0.88;;;;;;;-0.08;100.00;97209.72;10205449;28;20062;-59
2022/12/12 22:36:44;;;;;;;0.52;0.52;;;;;;;-0.16;100.00;97200.94;10203798;28;20066;-60
2022/12/12 22:41:44;;;;;;;1.33;1.23;;;;;;;-0.31;100.00;97205.56;10205744;28;20062;-59
2022/12/12 22:46:45;;;;;;;1.08;1.08;;;;;;;-0.59;100.00;97212.28;10204016;28;20138;-59
2022/12/12 22:51:45;;;;;;;0.50;0.50;;;;;;;-0.68;100.00;97224.72;10205052;28;20058;-60
2022/12/12 22:56:44;;;;;;;2.90;1.67;;;;;;;-0.70;100.00;97226.34;10205169;28;20069;-60
2022/12/12 23:01:43;;;;;;;0.20;0.20;;;;;;;-0.87;100.00;97211.34;10209566;28;20062;-60
2022/12/12 23:06:43;;;;;;;0.82;0.82;;;;;;;-0.75;100.00;97230.41;10212342;28;20122;-59
2022/12/12 23:11:43;;;;;;;;;;;;;;;-0.75;100.00;97231.28;10209707;28;20072;-59
2022/12/12 23:16:42;;;;;;;0.45;0.45;;;;;;;-0.79;100.00;97231.97;10210338;28;20379;-59
2022/12/12 23:21:42;;;;;;;0.40;0.40;;;;;;;-0.73;100.00;97233.88;10209927;28;20077;-59
2022/12/12 23:26:41;;;;;;;0.52;0.52;;;;;;;-0.73;100.00;97242.41;10209649;28;20132;-59
2022/12/12 23:31:40;;;;;;;;;;;;;;;-0.69;100.00;97235.75;10212327;28;20546;-59
2022/12/12 23:36:39;;;;;;;7.57;1.65;;;;;;;-0.59;100.00;97235.22;10210372;28;20413;-59
2022/12/12 23:41:39;;;;;;;0.45;0.45;;;;;;;-0.56;100.00;97239.56;10211577;28;20137;-59